Airfield :







YOU CAN JOIN US ON...

 
LOGIN :

Register | Disclaimer

   EN    FR    IT 

 









Legend :    VFR   Marginal VFR   IFR   Intensive IFR   Very Intensive IFR
Visi :
Ceiling :
>= 8 km
>= 3000ft
5 to 8 km
1000 to 3000 ft
1500m to 5 km
500 to 1000 ft
800 to 1500m
200 to 500 ft
< 800m
< 200 ft
Symbols :   Thunderstorms  Fog  Heavy snow  Heavy precipitations  Wind > 20 kt






- Airport Elevation : 35 ft
- IATA code : YGR


CYGR - ëles-de-la-Madeleine

CURRENT METAR :
  • 071100Z 28015G20KT 15SM -SHSN BKN033 M03/M09 A2985 RMK CU5 SLP110

EXPIRED METARs :
  • 071000Z 28013G19KT 15SM -SHSN BKN030 M02/M08 A2984 RMK CU6 SLP107

TAF TAF CYGR
Valid from the 07 at 12:00 until the 08 at 00:00 UTC


071138Z 0712/0724 28015G25KT P6SM -SHSN BKN030
TEMPO 0712/0724 5SM -SHSN OVC020
BECMG 0716/0718 30020G30KT RMK NXT FCST BY 071400Z



MET'MAP, your aeronautical weather chart ! - Copyright ORBIFLY December 2007 - Disclaimer

ORBIFLY MET'MAP TEAM :

Programming & Development : Alexandra Zaïnal
Concept & original design : Baudouin d'Aumeries
Assistance for programming : Marc-Olivier Méhu
Technical & hardware support : Manuel Goepfert

Contact : metmap@orbifly.com




SOURCES & CREDITS :

   NOAA